Terminal Aerodrome Forecast
Issued by NWS

Current Version | Previous Version | Text Only | Print | Product List | Glossary On
Versions: 1 2 3 4 5 6 7 8 9 10 11 12 13 14 15 16 17 18 19 20 21 22 23 24
000
FTUS45 KREV 221100
TAFCXP
TAF
KCXP 221120Z 2212/2312 18012G24KT P6SM BKN040 BKN090 WS020/24040KT
     FM221700 24028G38KT P6SM VCSH SCT040 BKN050
     FM222200 27024G34KT P6SM VCSH BKN040
     FM230100 29012G24KT P6SM SCT040 SCT200
     FM230400 34007KT P6SM BKN200=

USA.gov is the U.S. government's official web portal to all federal, state and local government web resources and services.